Chippewa, MI

12:58 AM EDT on September 25, 2017 (GMT -0400)
Chippewa County International

Weather History for KCIU - December, 2013

Change the Weather History Date:

Thursday, December 26, 2013

  Actual Average Record
Temperature  
Mean Temperature 15 °F -  
Max Temperature 24 °F 22 °F 47 °F (1982)
Min Temperature 6 °F 4 °F -24 °F (1993)
Degree Days  
Heating Degree Days 50    
Moisture  
Dew Point 11 °F    
Average Humidity 88    
Maximum Humidity 100    
Minimum Humidity 68    
Precipitation  
Precipitation 0.00 in - - ()
Sea Level Pressure  
Sea Level Pressure 30.04 in    
Wind  
Wind Speed 5 mph (SW)    
Max Wind Speed 12 mph    
Max Gust Speed 17 mph    
Visibility 10 miles    
Events      
Averages and records for this station are not official NWS values.
T = Trace of Precipitation, MM = Missing Value Source: NWS Daily Summary

Daily Weather History Graph

Daily Weather History Graph

Search for Another Location

Airport or City:

Trip Planner

Search our weather history database for the weather conditions in past years. The results will help you decide how hot, cold, wet, or windy it might be!

Date:

Astronomy

Dec. 26, 2013 Rise Set
Actual Time 8:19 AM EST 4:57 PM EST
Civil Twilight 7:45 AM EST 5:32 PM EST
Nautical Twilight 7:06 AM EST 6:10 PM EST
Astronomical Twilight 6:30 AM EST 6:47 PM EST
Moon 1:32 AM EST (12/26) 12:46 PM EST (12/26)
Length of Visible Light 9h 47m
Length of Day
8h 37m
Last Quarter, 38% of the Moon is Illuminated
Dec 26
Last Quarter
Jan 1
New
Jan 7
First Quarter
Jan 15
Full
Jan 24
Last Quarter

Hourly Weather History & Observations

Time (EST) Temp. Windchill Dew Point Humidity Pressure Visibility Wind Dir Wind Speed Gust Speed Precip Events Conditions
12:15 AM 8.6 °F 0.1 °F 6.8 °F 92% 29.97 in 10.0 mi WSW 4.6 mph - N/A   Clear
12:35 AM 8.6 °F -1.3 °F 6.8 °F 92% 29.96 in 10.0 mi South 5.8 mph - N/A   Partly Cloudy
12:55 AM 8.6 °F -1.3 °F 8.6 °F 100% 29.96 in 10.0 mi SSW 5.8 mph - N/A   Mostly Cloudy
1:15 AM 10.4 °F -0.4 °F 8.6 °F 92% 29.96 in 10.0 mi SSW 6.9 mph - N/A   Overcast
1:35 AM 10.4 °F -0.4 °F 8.6 °F 92% 29.96 in 10.0 mi SW 6.9 mph - N/A   Overcast
1:55 AM 10.4 °F 4.0 °F 8.6 °F 92% 29.95 in 10.0 mi SW 3.5 mph - N/A   Overcast
2:15 AM 10.4 °F 4.0 °F 8.6 °F 92% 29.95 in 10.0 mi WSW 3.5 mph - N/A   Overcast
2:35 AM 10.4 °F 2.2 °F 8.6 °F 92% 29.96 in 10.0 mi SW 4.6 mph - N/A   Overcast
2:55 AM 10.4 °F 2.2 °F 8.6 °F 92% 29.95 in 10.0 mi WSW 4.6 mph - N/A   Overcast
3:15 AM 10.4 °F - 8.6 °F 92% 29.95 in 10.0 mi Calm Calm - N/A   Overcast
3:35 AM 10.4 °F - 10.4 °F 100% 29.95 in 10.0 mi Calm Calm - N/A   Overcast
3:55 AM 10.4 °F 4.0 °F 10.4 °F 100% 29.95 in 10.0 mi WSW 3.5 mph - N/A   Overcast
4:15 AM 12.2 °F - 10.4 °F 92% 29.95 in 10.0 mi Calm Calm - N/A   Overcast
4:35 AM 10.4 °F - 10.4 °F 100% 29.94 in 10.0 mi Calm Calm - N/A   Overcast
4:55 AM 10.4 °F - 10.4 °F 100% 29.95 in 10.0 mi Calm Calm - N/A   Overcast
5:15 AM 10.4 °F - 10.4 °F 100% 29.95 in 10.0 mi Calm Calm - N/A   Overcast
5:35 AM 12.2 °F 6.1 °F 10.4 °F 92% 29.95 in 10.0 mi West 3.5 mph - N/A   Overcast
5:55 AM 12.2 °F - 10.4 °F 92% 29.95 in 10.0 mi Calm Calm - N/A   Overcast
6:15 AM 12.2 °F - 10.4 °F 92% 29.96 in 10.0 mi Calm Calm - N/A   Overcast
6:35 AM 12.2 °F - 10.4 °F 92% 29.96 in 10.0 mi Calm Calm - N/A   Overcast
6:55 AM 12.2 °F 6.1 °F 10.4 °F 92% 29.97 in 10.0 mi SSW 3.5 mph - N/A   Overcast
7:15 AM 12.2 °F 6.1 °F 10.4 °F 92% 29.97 in 10.0 mi WSW 3.5 mph - N/A   Overcast
7:35 AM 12.2 °F 6.1 °F 10.4 °F 92% 29.97 in 10.0 mi SW 3.5 mph - N/A   Overcast
7:55 AM 12.2 °F 2.9 °F 10.4 °F 92% 29.98 in 10.0 mi SW 5.8 mph - N/A   Overcast
8:15 AM 14.0 °F 6.5 °F 12.2 °F 93% 29.99 in 10.0 mi SW 4.6 mph - N/A   Overcast
8:35 AM 14.0 °F 8.2 °F 12.2 °F 93% 30.00 in 10.0 mi WSW 3.5 mph - N/A   Overcast
8:55 AM 14.0 °F 8.2 °F 12.2 °F 93% 30.00 in 10.0 mi SSW 3.5 mph - N/A   Overcast
9:15 AM 14.0 °F 8.2 °F 12.2 °F 93% 30.01 in 10.0 mi SW 3.5 mph - N/A   Overcast
9:35 AM 14.0 °F - 12.2 °F 93% 30.02 in 10.0 mi Calm Calm - N/A   Overcast
9:55 AM 15.8 °F - 12.2 °F 86% 30.02 in 10.0 mi Calm Calm - N/A   Overcast
10:15 AM 15.8 °F 8.6 °F 12.2 °F 86% 30.03 in 10.0 mi SW 4.6 mph - N/A   Mostly Cloudy
10:35 AM 17.6 °F 10.7 °F 14.0 °F 86% 30.04 in 10.0 mi SSW 4.6 mph - N/A   Scattered Clouds
10:55 AM 19.4 °F 12.8 °F 15.8 °F 86% 30.04 in 10.0 mi SW 4.6 mph - N/A   Scattered Clouds
11:15 AM 21.2 °F 13.6 °F 15.8 °F 80% 30.04 in 10.0 mi SW 5.8 mph - N/A   Clear
11:35 AM 21.2 °F 14.9 °F 15.8 °F 80% 30.03 in 10.0 mi SW 4.6 mph - N/A   Clear
11:55 AM 23.0 °F 15.8 °F 17.6 °F 80% 30.03 in 10.0 mi WSW 5.8 mph - N/A   Clear
12:15 PM 24.8 °F 17.9 °F 15.8 °F 69% 30.03 in 10.0 mi WSW 5.8 mph - N/A   Clear
12:35 PM 24.8 °F 16.1 °F 15.8 °F 69% 30.04 in 10.0 mi WSW 8.1 mph - N/A   Clear
12:55 PM 24.8 °F 16.1 °F 15.8 °F 69% 30.03 in 10.0 mi WSW 8.1 mph - N/A   Clear
1:15 PM 23.0 °F 12.4 °F 15.8 °F 74% 30.03 in 10.0 mi WSW 10.4 mph - N/A   Mostly Cloudy
1:35 PM 21.2 °F 9.5 °F 14.0 °F 74% 30.03 in 10.0 mi West 11.5 mph 17.3 mph N/A   Overcast
1:55 PM 21.2 °F 9.5 °F 14.0 °F 74% 30.03 in 10.0 mi West 11.5 mph - N/A   Overcast
2:15 PM 21.2 °F 10.1 °F 14.0 °F 74% 30.04 in 10.0 mi WSW 10.4 mph 17.3 mph N/A   Overcast
2:35 PM 21.2 °F 10.9 °F 12.2 °F 68% 30.04 in 10.0 mi West 9.2 mph 17.3 mph N/A   Mostly Cloudy
2:55 PM 21.2 °F 12.6 °F 14.0 °F 74% 30.05 in 10.0 mi SW 6.9 mph - N/A   Clear
3:15 PM 21.2 °F 10.9 °F 12.2 °F 68% 30.05 in 10.0 mi WSW 9.2 mph - N/A   Clear
3:35 PM 19.4 °F 10.4 °F 12.2 °F 74% 30.06 in 10.0 mi WSW 6.9 mph - N/A   Clear
3:55 PM 19.4 °F 8.6 °F 12.2 °F 74% 30.07 in 10.0 mi WSW 9.2 mph - N/A   Scattered Clouds
4:15 PM 19.4 °F 10.4 °F 14.0 °F 80% 30.07 in 10.0 mi WSW 6.9 mph - N/A   Overcast
4:35 PM 19.4 °F 10.4 °F 14.0 °F 80% 30.08 in 10.0 mi SW 6.9 mph - N/A   Overcast
4:55 PM 19.4 °F 10.4 °F 14.0 °F 80% 30.08 in 10.0 mi SW 6.9 mph - N/A   Overcast
5:15 PM 19.4 °F 10.4 °F 14.0 °F 80% 30.09 in 10.0 mi SW 6.9 mph - N/A   Overcast
5:35 PM 17.6 °F 9.3 °F 14.0 °F 86% 30.09 in 10.0 mi WSW 5.8 mph - N/A   Overcast
5:55 PM 17.6 °F 9.3 °F 12.2 °F 79% 30.10 in 10.0 mi SW 5.8 mph - N/A   Scattered Clouds
6:15 PM 15.8 °F 8.6 °F 12.2 °F 86% 30.11 in 10.0 mi WSW 4.6 mph - N/A   Clear
6:35 PM 14.0 °F 6.5 °F 10.4 °F 86% 30.11 in 10.0 mi WSW 4.6 mph - N/A   Clear
6:55 PM 12.2 °F 6.1 °F 10.4 °F 92% 30.11 in 10.0 mi SW 3.5 mph - N/A   Clear
7:15 PM 12.2 °F 6.1 °F 10.4 °F 92% 30.12 in 10.0 mi SW 3.5 mph - N/A   Clear
7:35 PM 12.2 °F 6.1 °F 10.4 °F 92% 30.12 in 10.0 mi WSW 3.5 mph - N/A   Clear
7:55 PM 10.4 °F 4.0 °F 8.6 °F 92% 30.12 in 10.0 mi SW 3.5 mph - N/A   Clear
8:15 PM 10.4 °F 0.8 °F 8.6 °F 92% 30.13 in 10.0 mi SSW 5.8 mph - N/A   Clear
8:35 PM 10.4 °F 2.2 °F 10.4 °F 100% 30.13 in 10.0 mi SSW 4.6 mph - N/A   Clear
8:55 PM 10.4 °F 2.2 °F 8.6 °F 92% 30.14 in 10.0 mi WSW 4.6 mph - N/A   Clear
9:15 PM 8.6 °F 0.1 °F 6.8 °F 92% 30.14 in 10.0 mi WSW 4.6 mph - N/A   Clear
9:35 PM 8.6 °F -1.3 °F 6.8 °F 92% 30.14 in 10.0 mi WSW 5.8 mph - N/A   Clear
9:55 PM 8.6 °F -1.3 °F 6.8 °F 92% 30.14 in 10.0 mi WSW 5.8 mph - N/A   Clear
10:15 PM 8.6 °F -1.3 °F 6.8 °F 92% 30.14 in 10.0 mi WSW 5.8 mph - N/A   Clear
10:35 PM 8.6 °F 0.1 °F 6.8 °F 92% 30.14 in 10.0 mi WSW 4.6 mph - N/A   Clear
10:55 PM 8.6 °F -1.3 °F 6.8 °F 92% 30.14 in 10.0 mi WSW 5.8 mph - N/A   Clear
11:15 PM 6.8 °F -3.5 °F 6.8 °F 100% 30.14 in 10.0 mi SW 5.8 mph - N/A   Clear
11:35 PM 6.8 °F -2.0 °F 5.0 °F 92% 30.13 in 10.0 mi SW 4.6 mph - N/A   Clear
11:55 PM 6.8 °F -2.0 °F 5.0 °F 92% 30.13 in 10.0 mi SW 4.6 mph - N/A   Clear